sensor_id;sensor_type;location;lat;lon;timestamp;temperature;humidity
16966;DHT22;8599;47.852;12.070;2023-03-01T00:01:00;1.70;99.90
16966;DHT22;8599;47.852;12.070;2023-03-01T00:03:27;1.70;99.90
16966;DHT22;8599;47.852;12.070;2023-03-01T00:05:53;1.70;99.90
16966;DHT22;8599;47.852;12.070;2023-03-01T00:08:21;1.70;99.90
16966;DHT22;8599;47.852;12.070;2023-03-01T00:10:48;1.70;99.90
16966;DHT22;8599;47.852;12.070;2023-03-01T00:13:15;1.70;99.90
16966;DHT22;8599;47.852;12.070;2023-03-01T00:15:42;1.70;99.90
16966;DHT22;8599;47.852;12.070;2023-03-01T00:18:09;1.70;99.90
16966;DHT22;8599;47.852;12.070;2023-03-01T00:20:35;1.70;99.90
16966;DHT22;8599;47.852;12.070;2023-03-01T00:23:02;1.80;99.90
16966;DHT22;8599;47.852;12.070;2023-03-01T00:25:30;1.70;99.90
16966;DHT22;8599;47.852;12.070;2023-03-01T00:27:57;1.70;99.90
16966;DHT22;8599;47.852;12.070;2023-03-01T00:30:24;1.70;99.90
16966;DHT22;8599;47.852;12.070;2023-03-01T00:32:51;1.60;99.90
16966;DHT22;8599;47.852;12.070;2023-03-01T00:35:17;1.60;99.90
16966;DHT22;8599;47.852;12.070;2023-03-01T00:37:44;1.60;99.90
16966;DHT22;8599;47.852;12.070;2023-03-01T00:40:12;1.60;99.90
16966;DHT22;8599;47.852;12.070;2023-03-01T00:42:40;1.70;99.90
16966;DHT22;8599;47.852;12.070;2023-03-01T00:45:08;1.70;99.90
16966;DHT22;8599;47.852;12.070;2023-03-01T00:47:35;1.70;99.90
16966;DHT22;8599;47.852;12.070;2023-03-01T00:50:02;1.70;99.90
16966;DHT22;8599;47.852;12.070;2023-03-01T00:52:29;1.80;99.90
16966;DHT22;8599;47.852;12.070;2023-03-01T00:54:55;1.80;99.90
16966;DHT22;8599;47.852;12.070;2023-03-01T00:57:23;1.70;99.90
16966;DHT22;8599;47.852;12.070;2023-03-01T00:59:51;1.70;99.90
16966;DHT22;8599;47.852;12.070;2023-03-01T01:02:18;1.60;99.90
16966;DHT22;8599;47.852;12.070;2023-03-01T01:04:45;1.60;99.90
16966;DHT22;8599;47.852;12.070;2023-03-01T01:07:13;1.70;99.90
16966;DHT22;8599;47.852;12.070;2023-03-01T01:09:39;1.70;99.90
16966;DHT22;8599;47.852;12.070;2023-03-01T01:12:07;1.70;99.90
16966;DHT22;8599;47.852;12.070;2023-03-01T01:14:34;1.70;99.90
16966;DHT22;8599;47.852;12.070;2023-03-01T01:17:02;1.70;99.90
16966;DHT22;8599;47.852;12.070;2023-03-01T01:19:29;1.80;99.90
16966;DHT22;8599;47.852;12.070;2023-03-01T01:21:56;1.70;99.90
16966;DHT22;8599;47.852;12.070;2023-03-01T01:24:23;1.60;99.90
16966;DHT22;8599;47.852;12.070;2023-03-01T01:26:50;1.70;99.90
16966;DHT22;8599;47.852;12.070;2023-03-01T01:29:16;1.70;99.90
16966;DHT22;8599;47.852;12.070;2023-03-01T01:31:43;1.60;99.90
16966;DHT22;8599;47.852;12.070;2023-03-01T01:34:15;1.70;99.90
16966;DHT22;8599;47.852;12.070;2023-03-01T01:36:42;1.70;99.90
16966;DHT22;8599;47.852;12.070;2023-03-01T01:39:09;1.60;99.90
16966;DHT22;8599;47.852;12.070;2023-03-01T01:41:39;1.50;99.90
16966;DHT22;8599;47.852;12.070;2023-03-01T01:44:16;1.50;99.90
16966;DHT22;8599;47.852;12.070;2023-03-01T01:46:47;1.50;99.90
16966;DHT22;8599;47.852;12.070;2023-03-01T01:49:35;1.50;99.90
16966;DHT22;8599;47.852;12.070;2023-03-01T01:52:07;1.50;99.90
16966;DHT22;8599;47.852;12.070;2023-03-01T01:54:41;1.50;99.90
16966;DHT22;8599;47.852;12.070;2023-03-01T01:57:11;1.50;99.90
16966;DHT22;8599;47.852;12.070;2023-03-01T01:59:42;1.50;99.90
16966;DHT22;8599;47.852;12.070;2023-03-01T02:02:10;1.40;99.90
16966;DHT22;8599;47.852;12.070;2023-03-01T02:04:39;1.40;99.90
16966;DHT22;8599;47.852;12.070;2023-03-01T02:07:12;1.50;99.90
16966;DHT22;8599;47.852;12.070;2023-03-01T02:09:41;1.50;99.90
16966;DHT22;8599;47.852;12.070;2023-03-01T02:12:09;1.40;99.90
16966;DHT22;8599;47.852;12.070;2023-03-01T02:14:36;1.50;99.90
16966;DHT22;8599;47.852;12.070;2023-03-01T02:17:03;1.50;99.90
16966;DHT22;8599;47.852;12.070;2023-03-01T02:19:43;1.40;99.90
16966;DHT22;8599;47.852;12.070;2023-03-01T02:22:20;1.40;99.90
16966;DHT22;8599;47.852;12.070;2023-03-01T02:24:57;1.40;99.90
16966;DHT22;8599;47.852;12.070;2023-03-01T02:27:33;1.40;99.90
16966;DHT22;8599;47.852;12.070;2023-03-01T02:30:05;1.50;99.90
16966;DHT22;8599;47.852;12.070;2023-03-01T02:32:33;1.40;99.90
16966;DHT22;8599;47.852;12.070;2023-03-01T02:34:59;1.30;99.90
16966;DHT22;8599;47.852;12.070;2023-03-01T02:37:27;1.30;99.90
16966;DHT22;8599;47.852;12.070;2023-03-01T02:39:58;1.30;99.90
16966;DHT22;8599;47.852;12.070;2023-03-01T02:42:28;1.40;99.90
16966;DHT22;8599;47.852;12.070;2023-03-01T02:44:57;1.40;99.90
16966;DHT22;8599;47.852;12.070;2023-03-01T02:47:25;1.40;99.90
16966;DHT22;8599;47.852;12.070;2023-03-01T02:49:52;1.30;99.90
16966;DHT22;8599;47.852;12.070;2023-03-01T02:52:33;1.30;99.90
16966;DHT22;8599;47.852;12.070;2023-03-01T02:55:02;1.30;99.90
16966;DHT22;8599;47.852;12.070;2023-03-01T02:57:31;1.30;99.90
16966;DHT22;8599;47.852;12.070;2023-03-01T03:00:02;1.30;99.90
16966;DHT22;8599;47.852;12.070;2023-03-01T03:02:34;1.20;99.90
16966;DHT22;8599;47.852;12.070;2023-03-01T03:05:07;1.20;99.90
16966;DHT22;8599;47.852;12.070;2023-03-01T03:07:36;1.30;99.90
16966;DHT22;8599;47.852;12.070;2023-03-01T03:10:04;1.30;99.90
16966;DHT22;8599;47.852;12.070;2023-03-01T03:12:31;1.30;99.90
16966;DHT22;8599;47.852;12.070;2023-03-01T03:14:58;1.30;99.90
16966;DHT22;8599;47.852;12.070;2023-03-01T03:17:25;1.30;99.90
16966;DHT22;8599;47.852;12.070;2023-03-01T03:19:53;1.40;99.90
16966;DHT22;8599;47.852;12.070;2023-03-01T03:22:20;1.30;99.90
16966;DHT22;8599;47.852;12.070;2023-03-01T03:24:47;1.30;99.90
16966;DHT22;8599;47.852;12.070;2023-03-01T03:27:14;1.20;99.90
16966;DHT22;8599;47.852;12.070;2023-03-01T03:29:41;1.20;99.90
16966;DHT22;8599;47.852;12.070;2023-03-01T03:32:07;1.20;99.90
16966;DHT22;8599;47.852;12.070;2023-03-01T03:34:34;1.10;99.90
16966;DHT22;8599;47.852;12.070;2023-03-01T03:37:09;1.10;99.90
16966;DHT22;8599;47.852;12.070;2023-03-01T03:39:56;1.20;99.90
16966;DHT22;8599;47.852;12.070;2023-03-01T03:42:22;1.20;99.90
16966;DHT22;8599;47.852;12.070;2023-03-01T03:44:49;1.10;99.90
16966;DHT22;8599;47.852;12.070;2023-03-01T03:47:16;1.20;99.90
16966;DHT22;8599;47.852;12.070;2023-03-01T03:49:43;1.10;99.90
16966;DHT22;8599;47.852;12.070;2023-03-01T03:52:11;1.10;99.90
16966;DHT22;8599;47.852;12.070;2023-03-01T03:54:39;1.10;99.90
16966;DHT22;8599;47.852;12.070;2023-03-01T03:57:06;1.20;99.90
16966;DHT22;8599;47.852;12.070;2023-03-01T03:59:33;1.10;99.90
16966;DHT22;8599;47.852;12.070;2023-03-01T04:02:00;1.00;99.90
16966;DHT22;8599;47.852;12.070;2023-03-01T04:04:26;1.10;99.90
16966;DHT22;8599;47.852;12.070;2023-03-01T04:06:53;1.10;99.90
16966;DHT22;8599;47.852;12.070;2023-03-01T04:09:21;1.10;99.90
16966;DHT22;8599;47.852;12.070;2023-03-01T04:11:48;1.10;99.90
16966;DHT22;8599;47.852;12.070;2023-03-01T04:14:15;1.10;99.90
16966;DHT22;8599;47.852;12.070;2023-03-01T04:16:42;0.90;99.90
16966;DHT22;8599;47.852;12.070;2023-03-01T04:19:08;1.00;99.90
16966;DHT22;8599;47.852;12.070;2023-03-01T04:21:36;1.00;99.90
16966;DHT22;8599;47.852;12.070;2023-03-01T04:24:03;1.10;99.90
16966;DHT22;8599;47.852;12.070;2023-03-01T04:26:31;1.00;99.90
16966;DHT22;8599;47.852;12.070;2023-03-01T04:28:58;1.10;99.90
16966;DHT22;8599;47.852;12.070;2023-03-01T04:31:25;1.00;99.90
16966;DHT22;8599;47.852;12.070;2023-03-01T04:33:53;1.00;99.90
16966;DHT22;8599;47.852;12.070;2023-03-01T04:36:23;0.90;99.90
16966;DHT22;8599;47.852;12.070;2023-03-01T04:38:50;1.00;99.90
16966;DHT22;8599;47.852;12.070;2023-03-01T04:41:19;1.10;99.90
16966;DHT22;8599;47.852;12.070;2023-03-01T04:43:47;1.10;99.90
16966;DHT22;8599;47.852;12.070;2023-03-01T04:46:16;1.10;99.90
16966;DHT22;8599;47.852;12.070;2023-03-01T04:48:44;1.00;99.90
16966;DHT22;8599;47.852;12.070;2023-03-01T04:51:12;1.10;99.90
16966;DHT22;8599;47.852;12.070;2023-03-01T04:53:40;1.20;99.90
16966;DHT22;8599;47.852;12.070;2023-03-01T04:56:07;1.20;99.90
16966;DHT22;8599;47.852;12.070;2023-03-01T04:58:34;1.20;99.90
16966;DHT22;8599;47.852;12.070;2023-03-01T05:01:08;1.20;99.90
16966;DHT22;8599;47.852;12.070;2023-03-01T05:03:41;1.20;99.90
16966;DHT22;8599;47.852;12.070;2023-03-01T05:06:09;1.10;99.90
16966;DHT22;8599;47.852;12.070;2023-03-01T05:08:36;1.10;99.90
16966;DHT22;8599;47.852;12.070;2023-03-01T05:11:03;1.00;99.90
16966;DHT22;8599;47.852;12.070;2023-03-01T05:13:30;1.20;99.90
16966;DHT22;8599;47.852;12.070;2023-03-01T05:15:59;1.00;99.90
16966;DHT22;8599;47.852;12.070;2023-03-01T05:18:29;1.00;99.90
16966;DHT22;8599;47.852;12.070;2023-03-01T05:21:01;1.00;99.90
16966;DHT22;8599;47.852;12.070;2023-03-01T05:23:29;0.90;99.90
16966;DHT22;8599;47.852;12.070;2023-03-01T05:25:57;0.80;99.90
16966;DHT22;8599;47.852;12.070;2023-03-01T05:28:25;0.80;99.90
16966;DHT22;8599;47.852;12.070;2023-03-01T05:30:52;0.70;99.90
16966;DHT22;8599;47.852;12.070;2023-03-01T05:33:19;0.70;99.90
16966;DHT22;8599;47.852;12.070;2023-03-01T05:35:49;0.70;99.90
16966;DHT22;8599;47.852;12.070;2023-03-01T05:38:17;0.70;99.90
16966;DHT22;8599;47.852;12.070;2023-03-01T05:40:46;0.60;99.90
16966;DHT22;8599;47.852;12.070;2023-03-01T05:43:14;0.50;99.90
16966;DHT22;8599;47.852;12.070;2023-03-01T05:45:41;0.50;99.90
16966;DHT22;8599;47.852;12.070;2023-03-01T05:48:10;0.60;99.90
16966;DHT22;8599;47.852;12.070;2023-03-01T05:50:39;0.60;99.90
16966;DHT22;8599;47.852;12.070;2023-03-01T05:53:10;0.70;99.90
16966;DHT22;8599;47.852;12.070;2023-03-01T05:55:38;0.60;99.90
16966;DHT22;8599;47.852;12.070;2023-03-01T05:58:06;0.60;99.90
16966;DHT22;8599;47.852;12.070;2023-03-01T06:00:34;0.60;99.90
16966;DHT22;8599;47.852;12.070;2023-03-01T06:03:01;0.60;99.90
16966;DHT22;8599;47.852;12.070;2023-03-01T06:05:28;0.50;99.90
16966;DHT22;8599;47.852;12.070;2023-03-01T06:07:58;0.50;99.90
16966;DHT22;8599;47.852;12.070;2023-03-01T06:10:27;0.60;99.90
16966;DHT22;8599;47.852;12.070;2023-03-01T06:12:55;0.60;99.90
16966;DHT22;8599;47.852;12.070;2023-03-01T06:15:23;0.50;99.90
16966;DHT22;8599;47.852;12.070;2023-03-01T06:17:50;0.60;99.90
16966;DHT22;8599;47.852;12.070;2023-03-01T06:20:18;0.50;99.90
16966;DHT22;8599;47.852;12.070;2023-03-01T06:22:46;0.60;99.90
16966;DHT22;8599;47.852;12.070;2023-03-01T06:25:16;0.50;99.90
16966;DHT22;8599;47.852;12.070;2023-03-01T06:27:44;0.50;99.90
16966;DHT22;8599;47.852;12.070;2023-03-01T06:30:13;0.50;99.90
16966;DHT22;8599;47.852;12.070;2023-03-01T06:32:40;0.50;99.90
16966;DHT22;8599;47.852;12.070;2023-03-01T06:35:09;0.40;99.90
16966;DHT22;8599;47.852;12.070;2023-03-01T06:37:36;0.40;99.90
16966;DHT22;8599;47.852;12.070;2023-03-01T06:40:04;0.40;99.90
16966;DHT22;8599;47.852;12.070;2023-03-01T06:42:33;0.40;99.90
16966;DHT22;8599;47.852;12.070;2023-03-01T06:45:02;0.40;99.90
16966;DHT22;8599;47.852;12.070;2023-03-01T06:47:29;0.50;99.90
16966;DHT22;8599;47.852;12.070;2023-03-01T06:49:56;0.50;99.90
16966;DHT22;8599;47.852;12.070;2023-03-01T06:52:23;0.60;99.90
16966;DHT22;8599;47.852;12.070;2023-03-01T06:54:50;0.60;99.90
16966;DHT22;8599;47.852;12.070;2023-03-01T06:57:17;0.60;99.90
16966;DHT22;8599;47.852;12.070;2023-03-01T06:59:44;0.70;99.90
16966;DHT22;8599;47.852;12.070;2023-03-01T07:02:12;0.60;99.90
16966;DHT22;8599;47.852;12.070;2023-03-01T07:04:41;0.70;99.90
16966;DHT22;8599;47.852;12.070;2023-03-01T07:07:08;0.70;99.90
16966;DHT22;8599;47.852;12.070;2023-03-01T07:09:34;0.50;99.90
16966;DHT22;8599;47.852;12.070;2023-03-01T07:12:01;0.40;99.90
16966;DHT22;8599;47.852;12.070;2023-03-01T07:14:28;0.50;99.90
16966;DHT22;8599;47.852;12.070;2023-03-01T07:16:55;0.60;99.90
16966;DHT22;8599;47.852;12.070;2023-03-01T07:19:23;0.40;99.90
16966;DHT22;8599;47.852;12.070;2023-03-01T07:21:50;0.50;99.90
16966;DHT22;8599;47.852;12.070;2023-03-01T07:24:17;0.50;99.90
16966;DHT22;8599;47.852;12.070;2023-03-01T07:26:47;0.50;99.90
16966;DHT22;8599;47.852;12.070;2023-03-01T07:29:14;0.60;99.90
16966;DHT22;8599;47.852;12.070;2023-03-01T07:31:41;0.60;99.90
16966;DHT22;8599;47.852;12.070;2023-03-01T07:34:08;0.50;99.90
16966;DHT22;8599;47.852;12.070;2023-03-01T07:36:36;0.50;99.90
16966;DHT22;8599;47.852;12.070;2023-03-01T07:39:03;0.50;99.90
16966;DHT22;8599;47.852;12.070;2023-03-01T07:41:30;0.60;99.90
16966;DHT22;8599;47.852;12.070;2023-03-01T07:43:56;0.70;99.90
16966;DHT22;8599;47.852;12.070;2023-03-01T07:46:23;0.70;99.90
16966;DHT22;8599;47.852;12.070;2023-03-01T07:48:50;0.70;99.90
16966;DHT22;8599;47.852;12.070;2023-03-01T07:51:17;0.70;99.90
16966;DHT22;8599;47.852;12.070;2023-03-01T07:53:47;0.70;99.90
16966;DHT22;8599;47.852;12.070;2023-03-01T07:56:15;0.70;99.90
16966;DHT22;8599;47.852;12.070;2023-03-01T07:58:44;0.70;99.90
16966;DHT22;8599;47.852;12.070;2023-03-01T08:01:12;0.70;99.90
16966;DHT22;8599;47.852;12.070;2023-03-01T08:03:39;0.80;99.90
16966;DHT22;8599;47.852;12.070;2023-03-01T08:06:08;0.70;99.90
16966;DHT22;8599;47.852;12.070;2023-03-01T08:08:36;0.70;99.90
16966;DHT22;8599;47.852;12.070;2023-03-01T08:11:05;0.80;99.90
16966;DHT22;8599;47.852;12.070;2023-03-01T08:13:33;0.70;99.90
16966;DHT22;8599;47.852;12.070;2023-03-01T08:16:04;0.60;99.90
16966;DHT22;8599;47.852;12.070;2023-03-01T08:18:31;0.60;99.90
16966;DHT22;8599;47.852;12.070;2023-03-01T08:21:01;0.70;99.90
16966;DHT22;8599;47.852;12.070;2023-03-01T08:23:28;0.80;99.90
16966;DHT22;8599;47.852;12.070;2023-03-01T08:26:03;1.00;99.90
16966;DHT22;8599;47.852;12.070;2023-03-01T08:28:30;1.00;99.90
16966;DHT22;8599;47.852;12.070;2023-03-01T08:30:57;1.10;99.90
16966;DHT22;8599;47.852;12.070;2023-03-01T08:33:24;1.20;99.90
16966;DHT22;8599;47.852;12.070;2023-03-01T08:35:50;1.30;99.90
16966;DHT22;8599;47.852;12.070;2023-03-01T08:38:17;1.30;99.90
16966;DHT22;8599;47.852;12.070;2023-03-01T08:40:44;1.30;99.90
16966;DHT22;8599;47.852;12.070;2023-03-01T08:43:12;1.30;99.90
16966;DHT22;8599;47.852;12.070;2023-03-01T08:45:39;1.30;99.90
16966;DHT22;8599;47.852;12.070;2023-03-01T08:48:05;1.30;99.90
16966;DHT22;8599;47.852;12.070;2023-03-01T08:50:32;1.30;99.90
16966;DHT22;8599;47.852;12.070;2023-03-01T08:52:59;1.30;99.90
16966;DHT22;8599;47.852;12.070;2023-03-01T08:55:26;1.50;99.90
16966;DHT22;8599;47.852;12.070;2023-03-01T08:57:52;1.60;99.90
16966;DHT22;8599;47.852;12.070;2023-03-01T09:00:21;1.50;99.90
16966;DHT22;8599;47.852;12.070;2023-03-01T09:02:48;1.50;99.90
16966;DHT22;8599;47.852;12.070;2023-03-01T09:05:15;1.60;99.90
16966;DHT22;8599;47.852;12.070;2023-03-01T09:07:42;1.70;99.90
16966;DHT22;8599;47.852;12.070;2023-03-01T09:10:10;1.80;99.90
16966;DHT22;8599;47.852;12.070;2023-03-01T09:12:37;2.00;99.90
16966;DHT22;8599;47.852;12.070;2023-03-01T09:15:04;2.10;99.90
16966;DHT22;8599;47.852;12.070;2023-03-01T09:17:32;2.10;99.90
16966;DHT22;8599;47.852;12.070;2023-03-01T09:19:59;2.00;99.90
16966;DHT22;8599;47.852;12.070;2023-03-01T09:22:26;2.00;99.90
16966;DHT22;8599;47.852;12.070;2023-03-01T09:24:53;2.00;99.90
16966;DHT22;8599;47.852;12.070;2023-03-01T09:27:19;1.90;99.90
16966;DHT22;8599;47.852;12.070;2023-03-01T09:29:46;2.10;99.90
16966;DHT22;8599;47.852;12.070;2023-03-01T09:32:13;1.80;99.90
16966;DHT22;8599;47.852;12.070;2023-03-01T09:34:41;1.90;99.90
16966;DHT22;8599;47.852;12.070;2023-03-01T09:37:26;2.00;99.90
16966;DHT22;8599;47.852;12.070;2023-03-01T09:39:53;2.00;99.90
16966;DHT22;8599;47.852;12.070;2023-03-01T09:42:20;2.10;99.90
16966;DHT22;8599;47.852;12.070;2023-03-01T09:44:49;2.10;99.90
16966;DHT22;8599;47.852;12.070;2023-03-01T09:47:20;2.10;99.90
16966;DHT22;8599;47.852;12.070;2023-03-01T09:49:57;2.10;99.90
16966;DHT22;8599;47.852;12.070;2023-03-01T09:52:30;2.20;99.90
16966;DHT22;8599;47.852;12.070;2023-03-01T09:54:59;2.20;99.90
16966;DHT22;8599;47.852;12.070;2023-03-01T09:57:30;2.20;99.90
16966;DHT22;8599;47.852;12.070;2023-03-01T10:00:07;2.30;99.90
16966;DHT22;8599;47.852;12.070;2023-03-01T10:02:41;2.40;99.90
16966;DHT22;8599;47.852;12.070;2023-03-01T10:05:24;2.40;99.90
16966;DHT22;8599;47.852;12.070;2023-03-01T10:08:03;2.60;99.90
16966;DHT22;8599;47.852;12.070;2023-03-01T10:10:36;2.60;99.90
16966;DHT22;8599;47.852;12.070;2023-03-01T10:13:13;2.60;99.90
16966;DHT22;8599;47.852;12.070;2023-03-01T10:15:44;2.50;99.90
16966;DHT22;8599;47.852;12.070;2023-03-01T10:18:17;2.60;99.90
16966;DHT22;8599;47.852;12.070;2023-03-01T10:20:52;2.50;99.90
16966;DHT22;8599;47.852;12.070;2023-03-01T10:23:19;2.60;99.90
16966;DHT22;8599;47.852;12.070;2023-03-01T10:26:01;2.70;99.90
16966;DHT22;8599;47.852;12.070;2023-03-01T10:28:37;2.60;99.90
16966;DHT22;8599;47.852;12.070;2023-03-01T10:31:10;2.70;99.90
16966;DHT22;8599;47.852;12.070;2023-03-01T10:33:38;2.80;99.90
16966;DHT22;8599;47.852;12.070;2023-03-01T10:36:07;3.10;99.90
16966;DHT22;8599;47.852;12.070;2023-03-01T10:38:49;3.00;99.90
16966;DHT22;8599;47.852;12.070;2023-03-01T10:41:17;3.00;99.90
16966;DHT22;8599;47.852;12.070;2023-03-01T10:43:47;2.90;99.90
16966;DHT22;8599;47.852;12.070;2023-03-01T10:46:23;2.90;99.90
16966;DHT22;8599;47.852;12.070;2023-03-01T10:49:06;3.00;99.90
16966;DHT22;8599;47.852;12.070;2023-03-01T10:51:34;3.10;99.90
16966;DHT22;8599;47.852;12.070;2023-03-01T10:54:02;3.10;99.90
16966;DHT22;8599;47.852;12.070;2023-03-01T10:56:46;3.20;99.90
16966;DHT22;8599;47.852;12.070;2023-03-01T10:59:22;3.00;99.90
16966;DHT22;8599;47.852;12.070;2023-03-01T11:02:04;2.70;99.90
16966;DHT22;8599;47.852;12.070;2023-03-01T11:04:39;2.80;99.90
16966;DHT22;8599;47.852;12.070;2023-03-01T11:07:09;2.90;99.90
16966;DHT22;8599;47.852;12.070;2023-03-01T11:09:35;2.90;99.90
16966;DHT22;8599;47.852;12.070;2023-03-01T11:12:11;2.90;99.90
16966;DHT22;8599;47.852;12.070;2023-03-01T11:14:46;3.10;99.90
16966;DHT22;8599;47.852;12.070;2023-03-01T11:17:17;3.00;99.90
16966;DHT22;8599;47.852;12.070;2023-03-01T11:20:00;3.00;99.90
16966;DHT22;8599;47.852;12.070;2023-03-01T11:22:30;3.00;99.90
16966;DHT22;8599;47.852;12.070;2023-03-01T11:24:58;3.10;99.90
16966;DHT22;8599;47.852;12.070;2023-03-01T11:27:27;3.10;99.90
16966;DHT22;8599;47.852;12.070;2023-03-01T11:29:59;3.30;99.90
16966;DHT22;8599;47.852;12.070;2023-03-01T11:32:32;3.10;99.90
16966;DHT22;8599;47.852;12.070;2023-03-01T11:35:05;3.10;99.90
16966;DHT22;8599;47.852;12.070;2023-03-01T11:37:41;3.00;99.90
16966;DHT22;8599;47.852;12.070;2023-03-01T11:40:13;3.10;99.90
16966;DHT22;8599;47.852;12.070;2023-03-01T11:43:01;3.10;99.90
16966;DHT22;8599;47.852;12.070;2023-03-01T11:45:38;3.20;99.90
16966;DHT22;8599;47.852;12.070;2023-03-01T11:48:15;3.10;99.90
16966;DHT22;8599;47.852;12.070;2023-03-01T11:50:48;3.00;99.90
16966;DHT22;8599;47.852;12.070;2023-03-01T11:53:47;3.00;99.90
16966;DHT22;8599;47.852;12.070;2023-03-01T11:56:25;3.20;99.90
16966;DHT22;8599;47.852;12.070;2023-03-01T11:59:34;3.30;99.90
16966;DHT22;8599;47.852;12.070;2023-03-01T12:02:22;3.10;99.90
16966;DHT22;8599;47.852;12.070;2023-03-01T12:05:08;3.10;99.90
16966;DHT22;8599;47.852;12.070;2023-03-01T12:07:46;3.20;99.90
16966;DHT22;8599;47.852;12.070;2023-03-01T12:10:28;3.30;99.90
16966;DHT22;8599;47.852;12.070;2023-03-01T12:13:18;3.00;99.90
16966;DHT22;8599;47.852;12.070;2023-03-01T12:18:52;3.30;99.90
16966;DHT22;8599;47.852;12.070;2023-03-01T12:21:34;3.20;99.90
16966;DHT22;8599;47.852;12.070;2023-03-01T12:24:25;3.30;99.90
16966;DHT22;8599;47.852;12.070;2023-03-01T12:27:12;3.50;99.90
16966;DHT22;8599;47.852;12.070;2023-03-01T12:29:50;3.70;99.90
16966;DHT22;8599;47.852;12.070;2023-03-01T12:32:28;3.80;99.90
16966;DHT22;8599;47.852;12.070;2023-03-01T12:35:35;3.60;99.90
16966;DHT22;8599;47.852;12.070;2023-03-01T12:38:17;3.70;99.90
16966;DHT22;8599;47.852;12.070;2023-03-01T12:41:02;4.00;99.90
16966;DHT22;8599;47.852;12.070;2023-03-01T12:43:44;4.00;99.90
16966;DHT22;8599;47.852;12.070;2023-03-01T12:46:27;4.20;99.90
16966;DHT22;8599;47.852;12.070;2023-03-01T12:49:01;4.20;99.90
16966;DHT22;8599;47.852;12.070;2023-03-01T12:51:33;4.30;99.90
16966;DHT22;8599;47.852;12.070;2023-03-01T12:54:07;4.10;99.90
16966;DHT22;8599;47.852;12.070;2023-03-01T12:56:38;4.00;99.90
16966;DHT22;8599;47.852;12.070;2023-03-01T12:59:13;4.00;99.90
16966;DHT22;8599;47.852;12.070;2023-03-01T13:01:46;4.10;99.90
16966;DHT22;8599;47.852;12.070;2023-03-01T13:04:21;4.20;99.90
16966;DHT22;8599;47.852;12.070;2023-03-01T13:06:59;4.20;99.90
16966;DHT22;8599;47.852;12.070;2023-03-01T13:09:34;4.30;99.90
16966;DHT22;8599;47.852;12.070;2023-03-01T13:12:02;4.40;99.90
16966;DHT22;8599;47.852;12.070;2023-03-01T13:14:43;4.70;99.90
16966;DHT22;8599;47.852;12.070;2023-03-01T13:17:29;4.50;99.90
16966;DHT22;8599;47.852;12.070;2023-03-01T13:19:57;4.80;99.90
16966;DHT22;8599;47.852;12.070;2023-03-01T13:22:26;4.80;99.90
16966;DHT22;8599;47.852;12.070;2023-03-01T13:25:02;4.70;99.90
16966;DHT22;8599;47.852;12.070;2023-03-01T13:27:29;4.80;99.90
16966;DHT22;8599;47.852;12.070;2023-03-01T13:30:00;4.80;99.90
16966;DHT22;8599;47.852;12.070;2023-03-01T13:32:31;4.80;99.90
16966;DHT22;8599;47.852;12.070;2023-03-01T13:34:59;5.10;99.90
16966;DHT22;8599;47.852;12.070;2023-03-01T13:37:32;5.50;99.90
16966;DHT22;8599;47.852;12.070;2023-03-01T13:40:04;5.70;99.90
16966;DHT22;8599;47.852;12.070;2023-03-01T13:42:38;5.70;99.90
16966;DHT22;8599;47.852;12.070;2023-03-01T13:45:16;5.50;99.90
16966;DHT22;8599;47.852;12.070;2023-03-01T13:47:45;5.30;99.90
16966;DHT22;8599;47.852;12.070;2023-03-01T13:50:20;5.50;99.90
16966;DHT22;8599;47.852;12.070;2023-03-01T13:52:53;5.50;99.90
16966;DHT22;8599;47.852;12.070;2023-03-01T13:55:26;5.50;99.90
16966;DHT22;8599;47.852;12.070;2023-03-01T13:57:57;5.70;99.90
16966;DHT22;8599;47.852;12.070;2023-03-01T14:00:35;5.60;99.90
16966;DHT22;8599;47.852;12.070;2023-03-01T14:03:10;5.80;99.90
16966;DHT22;8599;47.852;12.070;2023-03-01T14:05:38;6.20;99.90
16966;DHT22;8599;47.852;12.070;2023-03-01T14:08:18;6.20;99.90
16966;DHT22;8599;47.852;12.070;2023-03-01T14:10:54;6.30;99.90
16966;DHT22;8599;47.852;12.070;2023-03-01T14:13:37;6.00;99.90
16966;DHT22;8599;47.852;12.070;2023-03-01T14:16:22;6.00;99.90
16966;DHT22;8599;47.852;12.070;2023-03-01T14:19:00;6.10;99.90
16966;DHT22;8599;47.852;12.070;2023-03-01T14:21:29;6.40;99.90
16966;DHT22;8599;47.852;12.070;2023-03-01T14:23:58;6.30;99.90
16966;DHT22;8599;47.852;12.070;2023-03-01T14:26:25;6.40;99.90
16966;DHT22;8599;47.852;12.070;2023-03-01T14:28:52;6.40;99.90
16966;DHT22;8599;47.852;12.070;2023-03-01T14:31:36;6.30;99.90
16966;DHT22;8599;47.852;12.070;2023-03-01T14:34:03;6.70;99.90
16966;DHT22;8599;47.852;12.070;2023-03-01T14:36:32;6.80;99.90
16966;DHT22;8599;47.852;12.070;2023-03-01T14:38:59;6.80;99.90
16966;DHT22;8599;47.852;12.070;2023-03-01T14:41:32;6.90;99.90
16966;DHT22;8599;47.852;12.070;2023-03-01T14:44:02;6.70;99.90
16966;DHT22;8599;47.852;12.070;2023-03-01T14:46:34;6.30;99.90
16966;DHT22;8599;47.852;12.070;2023-03-01T14:49:04;6.50;99.90
16966;DHT22;8599;47.852;12.070;2023-03-01T14:51:35;6.40;99.90
16966;DHT22;8599;47.852;12.070;2023-03-01T14:54:04;6.70;99.90
16966;DHT22;8599;47.852;12.070;2023-03-01T14:56:43;6.40;99.90
16966;DHT22;8599;47.852;12.070;2023-03-01T14:59:12;6.60;99.90
16966;DHT22;8599;47.852;12.070;2023-03-01T15:01:41;6.60;99.90
16966;DHT22;8599;47.852;12.070;2023-03-01T15:04:12;6.90;99.90
16966;DHT22;8599;47.852;12.070;2023-03-01T15:06:39;7.20;99.90
16966;DHT22;8599;47.852;12.070;2023-03-01T15:09:14;7.20;99.90
16966;DHT22;8599;47.852;12.070;2023-03-01T15:11:44;7.50;99.90
16966;DHT22;8599;47.852;12.070;2023-03-01T15:14:39;7.80;99.90
16966;DHT22;8599;47.852;12.070;2023-03-01T15:17:30;8.20;99.90
16966;DHT22;8599;47.852;12.070;2023-03-01T15:19:57;8.00;99.90
16966;DHT22;8599;47.852;12.070;2023-03-01T15:22:26;8.20;99.90
16966;DHT22;8599;47.852;12.070;2023-03-01T15:24:53;8.30;99.90
16966;DHT22;8599;47.852;12.070;2023-03-01T15:27:22;8.40;99.90
16966;DHT22;8599;47.852;12.070;2023-03-01T15:29:52;8.50;99.90
16966;DHT22;8599;47.852;12.070;2023-03-01T15:32:27;8.30;99.90
16966;DHT22;8599;47.852;12.070;2023-03-01T15:34:55;8.20;99.90
16966;DHT22;8599;47.852;12.070;2023-03-01T15:37:39;8.10;99.90
16966;DHT22;8599;47.852;12.070;2023-03-01T15:40:19;7.80;99.90
16966;DHT22;8599;47.852;12.070;2023-03-01T15:42:47;7.50;99.90
16966;DHT22;8599;47.852;12.070;2023-03-01T15:45:22;7.30;99.90
16966;DHT22;8599;47.852;12.070;2023-03-01T15:47:52;7.20;99.90
16966;DHT22;8599;47.852;12.070;2023-03-01T15:50:22;7.10;99.90
16966;DHT22;8599;47.852;12.070;2023-03-01T15:52:49;6.90;99.90
16966;DHT22;8599;47.852;12.070;2023-03-01T15:55:19;6.80;99.90
16966;DHT22;8599;47.852;12.070;2023-03-01T15:57:47;6.50;99.90
16966;DHT22;8599;47.852;12.070;2023-03-01T16:00:15;6.30;99.90
16966;DHT22;8599;47.852;12.070;2023-03-01T16:02:45;6.20;99.90
16966;DHT22;8599;47.852;12.070;2023-03-01T16:05:20;6.00;99.90
16966;DHT22;8599;47.852;12.070;2023-03-01T16:07:48;6.00;99.90
16966;DHT22;8599;47.852;12.070;2023-03-01T16:10:16;6.00;99.90